Time;durP1;ratioP1;P1;durP2;ratioP2;P2;SDS_P1;SDS_P2;PMS_P1;PMS_P2;Temp;Humidity;BMP_temperature;BMP_pressure;BME280_temperature;BME280_humidity;BME280_pressure;Samples;Min_cycle;Max_cycle;Signal;HPM_P1;HPM_P2
2021/08/26 00:07:20;;;;;;;10.27;6.83;;;12.20;99.90;;;;;;5087028;28;20207;-90
2021/08/26 00:09:46;;;;;;;11.13;7.33;;;12.20;99.90;;;;;;5076258;28;20546;-90
2021/08/26 00:12:12;;;;;;;8.47;6.70;;;12.20;99.90;;;;;;5075759;28;20554;-90
2021/08/26 00:14:38;;;;;;;10.23;7.33;;;12.10;99.90;;;;;;5075564;28;20264;-90
2021/08/26 00:17:04;;;;;;;9.07;6.83;;;12.10;99.90;;;;;;5075417;28;20211;-90
2021/08/26 00:19:30;;;;;;;8.87;7.10;;;12.10;99.90;;;;;;5075819;28;20180;-90
2021/08/26 00:21:56;;;;;;;7.87;6.53;;;12.00;99.90;;;;;;5076094;28;20225;-90
2021/08/26 00:24:22;;;;;;;10.57;7.23;;;12.00;99.90;;;;;;5076352;28;20177;-90
2021/08/26 00:26:48;;;;;;;10.77;6.83;;;12.00;99.90;;;;;;5076523;28;20250;-90
2021/08/26 00:29:14;;;;;;;10.07;6.60;;;11.90;99.90;;;;;;5076608;28;20548;-90
2021/08/26 00:31:39;;;;;;;11.03;7.10;;;11.90;99.90;;;;;;5075529;28;20192;-90
2021/08/26 00:34:05;;;;;;;8.03;6.50;;;11.90;99.90;;;;;;5075837;28;20216;-90
2021/08/26 00:36:31;;;;;;;9.37;7.30;;;11.80;99.90;;;;;;5075434;28;20214;-90
2021/08/26 00:38:56;;;;;;;8.70;7.10;;;11.80;99.90;;;;;;5074461;28;20244;-90
2021/08/26 00:41:22;;;;;;;8.53;6.70;;;11.80;99.90;;;;;;5075571;28;20231;-89
2021/08/26 00:43:48;;;;;;;9.43;7.20;;;11.80;99.90;;;;;;5096123;28;20161;-89
2021/08/26 00:46:14;;;;;;;9.30;6.53;;;11.70;99.90;;;;;;5096843;28;20177;-89
2021/08/26 00:48:47;;;;;;;10.17;6.90;;;11.70;99.90;;;;;;5094431;28;20200;-89
2021/08/26 00:51:14;;;;;;;11.87;7.70;;;11.70;99.90;;;;;;5082483;28;20267;-90
2021/08/26 00:53:40;;;;;;;13.33;7.70;;;11.70;99.90;;;;;;5075244;28;20180;-90
2021/08/26 00:56:15;;;;;;;11.27;7.57;;;11.70;99.90;;;;;;5074427;28;20207;-89
2021/08/26 00:58:48;;;;;;;10.10;7.33;;;11.70;99.90;;;;;;5075060;28;20187;-90
2021/08/26 01:01:16;;;;;;;9.40;7.47;;;11.60;99.90;;;;;;5074453;28;20160;-90
2021/08/26 01:03:46;;;;;;;10.03;7.40;;;11.60;99.90;;;;;;5074374;28;20177;-90
2021/08/26 01:06:24;;;;;;;9.07;7.03;;;11.60;99.90;;;;;;5075914;28;20174;-90
2021/08/26 01:09:01;;;;;;;11.53;7.57;;;11.60;99.90;;;;;;5074354;28;20200;-90
2021/08/26 01:11:29;;;;;;;12.40;8.13;;;11.60;99.90;;;;;;5074352;28;20222;-90
2021/08/26 01:13:57;;;;;;;9.93;7.93;;;11.60;99.90;;;;;;5074796;28;20173;-90
2021/08/26 01:16:23;;;;;;;9.63;7.63;;;11.60;99.90;;;;;;5074768;28;20211;-90
2021/08/26 01:18:49;;;;;;;10.63;7.83;;;11.60;99.90;;;;;;5075543;28;20199;-90
2021/08/26 01:21:18;;;;;;;10.67;7.83;;;11.60;99.90;;;;;;5074857;28;20668;-90
2021/08/26 01:23:56;;;;;;;10.80;7.93;;;11.50;99.90;;;;;;5074636;28;20176;-90
2021/08/26 01:26:26;;;;;;;8.67;7.07;;;11.50;99.90;;;;;;5075216;28;20172;-90
2021/08/26 01:28:54;;;;;;;10.07;7.70;;;11.50;99.90;;;;;;5095029;28;20378;-90
2021/08/26 01:31:21;;;;;;;11.97;7.60;;;11.50;99.90;;;;;;5094743;28;20177;-90
2021/08/26 01:33:51;;;;;;;11.23;7.67;;;11.50;99.90;;;;;;5077339;28;20183;-90
2021/08/26 01:36:17;;;;;;;11.20;8.73;;;11.50;99.90;;;;;;5075059;28;20308;-90
2021/08/26 01:38:53;;;;;;;12.30;7.87;;;11.60;99.90;;;;;;5087845;28;20220;-90
2021/08/26 01:41:19;;;;;;;13.93;8.50;;;11.50;99.90;;;;;;5075029;28;20185;-90
2021/08/26 01:43:48;;;;;;;14.43;8.20;;;11.50;99.90;;;;;;5079310;28;20185;-90
2021/08/26 01:46:15;;;;;;;10.10;7.43;;;11.50;99.90;;;;;;5093957;28;20177;-90
2021/08/26 01:48:43;;;;;;;10.70;7.53;;;11.50;99.90;;;;;;5098300;28;20211;-90
2021/08/26 01:51:09;;;;;;;10.90;8.40;;;11.50;99.90;;;;;;5077137;28;20649;-90
2021/08/26 01:53:35;;;;;;;10.53;7.40;;;11.50;99.90;;;;;;5073959;28;20220;-90
2021/08/26 01:56:00;;;;;;;10.40;8.00;;;11.40;99.90;;;;;;5073986;28;20587;-90
2021/08/26 01:58:26;;;;;;;9.47;7.83;;;11.40;99.90;;;;;;5074127;28;20206;-90
2021/08/26 02:00:52;;;;;;;10.00;8.47;;;11.40;99.90;;;;;;5074255;28;20187;-91
2021/08/26 02:03:17;;;;;;;11.47;7.80;;;11.40;99.90;;;;;;5073436;28;20176;-90
2021/08/26 02:05:43;;;;;;;10.17;8.07;;;11.40;99.90;;;;;;5073361;28;20184;-90
2021/08/26 02:08:08;;;;;;;15.17;8.93;;;11.40;99.90;;;;;;5073362;28;20732;-90
2021/08/26 02:10:34;;;;;;;9.43;7.60;;;11.30;99.90;;;;;;5074205;28;20295;-90
2021/08/26 02:13:00;;;;;;;9.53;8.40;;;11.30;99.90;;;;;;5073865;28;20185;-90
2021/08/26 02:15:26;;;;;;;11.40;8.27;;;11.30;99.90;;;;;;5073775;28;20207;-90
2021/08/26 02:17:51;;;;;;;11.03;8.17;;;11.20;99.90;;;;;;5073606;28;20196;-90
2021/08/26 02:20:17;;;;;;;11.43;8.37;;;11.30;99.90;;;;;;5073726;28;20221;-90
2021/08/26 02:22:43;;;;;;;12.87;8.00;;;11.20;99.90;;;;;;5073916;28;20184;-90
2021/08/26 02:25:12;;;;;;;13.80;8.80;;;11.30;99.90;;;;;;5073621;28;20177;-90
2021/08/26 02:27:38;;;;;;;11.37;7.67;;;11.30;99.90;;;;;;5073308;28;20193;-90
2021/08/26 02:30:06;;;;;;;10.40;8.13;;;11.30;99.90;;;;;;5073507;28;20184;-90
2021/08/26 02:32:32;;;;;;;10.47;7.73;;;11.30;99.90;;;;;;5073389;28;20173;-90
2021/08/26 02:34:58;;;;;;;9.70;7.57;;;11.30;99.90;;;;;;5073800;28;20699;-90
2021/08/26 02:37:24;;;;;;;11.73;7.83;;;11.30;99.90;;;;;;5073602;28;20299;-90
2021/08/26 02:39:50;;;;;;;10.23;8.70;;;11.30;99.90;;;;;;5074821;28;20189;-90
2021/08/26 02:42:15;;;;;;;10.70;8.40;;;11.30;99.90;;;;;;5073846;28;20234;-90
2021/08/26 02:44:41;;;;;;;9.73;7.90;;;11.30;99.90;;;;;;5073982;28;20610;-90
2021/08/26 02:47:07;;;;;;;11.03;8.33;;;11.30;99.90;;;;;;5073599;28;20568;-90
2021/08/26 02:49:33;;;;;;;9.47;7.83;;;11.30;99.90;;;;;;5073789;28;20611;-90
2021/08/26 02:51:58;;;;;;;10.93;8.93;;;11.30;99.90;;;;;;5073789;28;20642;-90
2021/08/26 02:54:24;;;;;;;11.20;8.30;;;11.30;99.90;;;;;;5073372;28;20177;-90
2021/08/26 02:56:49;;;;;;;9.23;7.77;;;11.40;99.90;;;;;;5074247;28;20215;-90
2021/08/26 02:59:15;;;;;;;10.77;8.80;;;11.40;99.90;;;;;;5074813;28;20169;-90
2021/08/26 03:01:41;;;;;;;10.97;8.00;;;11.40;99.90;;;;;;5074805;28;20177;-90
2021/08/26 03:04:06;;;;;;;10.63;7.87;;;11.50;99.90;;;;;;5092666;28;20195;-90
2021/08/26 03:06:32;;;;;;;11.20;8.50;;;11.50;99.90;;;;;;5095538;28;20188;-90
2021/08/26 03:08:57;;;;;;;10.80;8.07;;;11.60;99.90;;;;;;5099026;28;20205;-90
2021/08/26 03:11:23;;;;;;;10.53;7.00;;;11.60;99.90;;;;;;5089232;28;20208;-90
2021/08/26 03:13:49;;;;;;;9.77;7.83;;;11.70;99.90;;;;;;5082768;28;20173;-89
2021/08/26 03:16:15;;;;;;;9.47;7.60;;;11.70;99.90;;;;;;5079866;28;20296;-90
2021/08/26 03:18:40;;;;;;;8.47;7.03;;;11.70;99.90;;;;;;5076749;28;20225;-90
2021/08/26 03:21:06;;;;;;;10.23;7.60;;;11.70;99.90;;;;;;5077994;28;20634;-90
2021/08/26 03:23:31;;;;;;;10.23;7.07;;;11.70;99.90;;;;;;5076655;28;20703;-89
2021/08/26 03:25:57;;;;;;;9.07;7.17;;;11.80;99.90;;;;;;5076919;28;20177;-90
2021/08/26 03:28:23;;;;;;;8.00;6.87;;;11.80;99.90;;;;;;5076664;28;20200;-90
2021/08/26 03:30:49;;;;;;;10.43;6.83;;;11.80;99.90;;;;;;5076756;28;20181;-91
2021/08/26 03:33:14;;;;;;;8.00;7.17;;;11.80;99.90;;;;;;5076887;28;20586;-90
2021/08/26 03:35:40;;;;;;;11.63;6.70;;;11.80;99.90;;;;;;5076361;28;20286;-90
2021/08/26 03:38:06;;;;;;;7.83;6.80;;;11.80;99.90;;;;;;5076930;28;20204;-90
2021/08/26 03:40:32;;;;;;;9.50;7.07;;;11.90;99.90;;;;;;5077911;28;20196;-90
2021/08/26 03:42:58;;;;;;;8.60;6.57;;;11.80;99.90;;;;;;5076264;28;20184;-91
2021/08/26 03:45:24;;;;;;;10.03;6.90;;;11.90;99.90;;;;;;5076036;28;20179;-90
2021/08/26 03:47:50;;;;;;;10.27;6.97;;;11.80;99.90;;;;;;5076289;28;20602;-90
2021/08/26 03:50:15;;;;;;;10.37;7.23;;;11.80;99.90;;;;;;5076624;28;20592;-91
2021/08/26 03:52:41;;;;;;;8.60;6.83;;;11.80;99.90;;;;;;5076290;28;20177;-90
2021/08/26 03:55:08;;;;;;;8.77;6.97;;;11.80;99.90;;;;;;5076720;28;20677;-90
2021/08/26 03:57:33;;;;;;;11.37;7.10;;;11.90;99.90;;;;;;5076109;28;20189;-89
2021/08/26 03:59:59;;;;;;;9.63;6.93;;;11.90;99.90;;;;;;5076392;28;20182;-90
2021/08/26 04:02:25;;;;;;;9.20;7.00;;;11.90;99.90;;;;;;5076104;28;20180;-90
2021/08/26 04:04:51;;;;;;;8.60;6.80;;;12.00;99.90;;;;;;5076269;28;20667;-90
2021/08/26 04:07:18;;;;;;;10.30;7.27;;;12.00;99.90;;;;;;5076552;28;20235;-90
2021/08/26 04:09:45;;;;;;;9.50;7.33;;;12.00;99.90;;;;;;5076972;28;20184;-90
2021/08/26 04:12:11;;;;;;;9.27;6.77;;;12.00;99.90;;;;;;5076699;28;20184;-90
2021/08/26 04:14:37;;;;;;;10.67;7.33;;;12.00;99.90;;;;;;5076579;28;20546;-90
2021/08/26 04:17:03;;;;;;;10.63;6.63;;;12.00;99.90;;;;;;5076599;28;20205;-91
2021/08/26 04:19:28;;;;;;;9.43;6.47;;;11.90;99.90;;;;;;5076536;28;20177;-90
2021/08/26 04:21:54;;;;;;;12.47;6.97;;;11.90;99.90;;;;;;5076640;28;20230;-91
2021/08/26 04:24:19;;;;;;;7.93;6.73;;;11.90;99.90;;;;;;5076100;28;20263;-91
2021/08/26 04:26:45;;;;;;;8.77;7.13;;;11.90;99.90;;;;;;5076002;28;20212;-91
2021/08/26 04:29:11;;;;;;;9.03;6.90;;;11.90;99.90;;;;;;5078185;28;20189;-91
2021/08/26 04:31:37;;;;;;;8.07;6.50;;;12.00;99.90;;;;;;5078536;28;20173;-91
2021/08/26 04:34:02;;;;;;;9.83;6.20;;;12.00;99.90;;;;;;5076897;28;20188;-92
2021/08/26 04:36:28;;;;;;;8.40;6.87;;;11.90;99.90;;;;;;5076627;28;20211;-91
2021/08/26 04:38:54;;;;;;;11.07;7.07;;;11.90;99.90;;;;;;5078660;28;20212;-91
2021/08/26 04:41:19;;;;;;;8.77;6.70;;;11.90;99.90;;;;;;5079338;28;20173;-91
2021/08/26 04:43:45;;;;;;;9.00;6.97;;;12.00;99.90;;;;;;5076892;28;20212;-91
2021/08/26 04:46:11;;;;;;;9.57;7.47;;;12.00;99.90;;;;;;5077091;28;20197;-92
2021/08/26 04:48:36;;;;;;;10.43;7.60;;;12.00;99.90;;;;;;5077299;28;20208;-91
2021/08/26 04:51:02;;;;;;;9.03;7.60;;;12.00;99.90;;;;;;5077019;28;20282;-92
2021/08/26 04:53:29;;;;;;;9.70;7.77;;;12.00;99.90;;;;;;5077026;28;20185;-92
2021/08/26 04:55:56;;;;;;;11.17;8.43;;;12.10;99.90;;;;;;5076252;28;20567;-90
2021/08/26 04:58:21;;;;;;;10.13;7.90;;;12.10;99.90;;;;;;5076069;28;20197;-89
2021/08/26 05:00:47;;;;;;;11.57;9.03;;;12.10;99.90;;;;;;5075924;28;20183;-89
2021/08/26 05:03:14;;;;;;;12.90;8.53;;;12.20;99.90;;;;;;5076930;28;20218;-89
2021/08/26 05:05:40;;;;;;;11.27;8.97;;;12.20;99.90;;;;;;5076475;28;20181;-89
2021/08/26 05:08:05;;;;;;;12.00;9.13;;;12.30;99.90;;;;;;5076630;28;20197;-90
2021/08/26 05:10:31;;;;;;;13.17;9.47;;;12.40;99.90;;;;;;5076466;28;20192;-90
2021/08/26 05:12:57;;;;;;;11.30;8.53;;;12.40;99.90;;;;;;5075803;28;20241;-90
2021/08/26 05:15:23;;;;;;;10.23;8.27;;;12.50;99.90;;;;;;5076312;28;20189;-90
2021/08/26 05:17:48;;;;;;;11.80;8.43;;;12.50;99.90;;;;;;5075796;28;20197;-90
2021/08/26 05:20:14;;;;;;;9.73;8.10;;;12.60;99.90;;;;;;5055928;28;20184;-89
2021/08/26 05:22:40;;;;;;;11.10;7.70;;;12.60;99.90;;;;;;5070945;28;20181;-90
2021/08/26 05:25:06;;;;;;;11.83;8.37;;;12.60;99.90;;;;;;5076062;28;20740;-89
2021/08/26 05:27:31;;;;;;;10.60;7.27;;;12.60;99.90;;;;;;5076609;28;20203;-89
2021/08/26 05:29:57;;;;;;;9.13;7.57;;;12.60;99.90;;;;;;5076883;28;20176;-90
2021/08/26 05:32:23;;;;;;;15.23;7.40;;;12.60;99.90;;;;;;5078586;28;20177;-90
2021/08/26 05:34:48;;;;;;;10.33;7.43;;;12.60;99.90;;;;;;5075599;28;20183;-90
2021/08/26 05:37:14;;;;;;;9.80;7.77;;;12.60;99.90;;;;;;5075981;28;20678;-90
2021/08/26 05:39:39;;;;;;;9.50;7.20;;;12.60;99.90;;;;;;5076170;28;20189;-90
2021/08/26 05:42:05;;;;;;;10.10;7.47;;;12.60;99.90;;;;;;5076149;28;20176;-90
2021/08/26 05:44:31;;;;;;;10.07;7.80;;;12.60;99.90;;;;;;5076252;28;20636;-90
2021/08/26 05:46:56;;;;;;;11.67;8.80;;;12.60;99.90;;;;;;5074967;28;20183;-90
2021/08/26 05:49:22;;;;;;;15.70;8.60;;;12.70;99.90;;;;;;5075534;28;20184;-90
2021/08/26 05:51:47;;;;;;;10.10;8.30;;;12.70;99.90;;;;;;5075365;28;20193;-90
2021/08/26 05:54:13;;;;;;;12.20;9.23;;;12.80;99.90;;;;;;5074815;28;20176;-89
2021/08/26 05:56:39;;;;;;;11.60;8.43;;;13.00;99.90;;;;;;5075234;28;20238;-89
2021/08/26 05:59:04;;;;;;;10.90;8.10;;;13.10;99.90;;;;;;5074855;28;20246;-90
2021/08/26 06:01:30;;;;;;;10.03;7.93;;;13.30;99.90;;;;;;5076322;28;20191;-89
2021/08/26 06:03:57;;;;;;;9.07;7.80;;;13.40;99.90;;;;;;5075381;28;20238;-89
2021/08/26 06:06:23;;;;;;;12.03;8.23;;;13.50;99.90;;;;;;5073991;28;20596;-89
2021/08/26 06:08:49;;;;;;;10.87;7.73;;;13.60;99.90;;;;;;5075748;28;20189;-89
2021/08/26 06:11:15;;;;;;;9.57;7.70;;;13.80;99.90;;;;;;5074460;28;20263;-89
2021/08/26 06:13:40;;;;;;;11.53;7.30;;;13.80;99.90;;;;;;5075054;28;20207;-88
2021/08/26 06:16:06;;;;;;;10.60;8.00;;;13.90;99.90;;;;;;5073906;28;20211;-90
2021/08/26 06:18:32;;;;;;;11.03;7.90;;;13.90;99.90;;;;;;5074012;28;20203;-90
2021/08/26 06:20:58;;;;;;;11.00;8.03;;;14.00;99.90;;;;;;5073778;28;20588;-90
2021/08/26 06:23:24;;;;;;;9.30;7.00;;;14.00;99.90;;;;;;5073719;28;20263;-89
2021/08/26 06:25:49;;;;;;;9.63;7.30;;;14.00;99.90;;;;;;5073671;28;20184;-89
2021/08/26 06:28:15;;;;;;;9.87;7.40;;;14.10;99.90;;;;;;5073612;28;20218;-89
2021/08/26 06:30:41;;;;;;;9.87;7.20;;;14.10;99.90;;;;;;5073890;28;20592;-88
2021/08/26 06:33:07;;;;;;;10.53;7.43;;;14.20;99.90;;;;;;5073307;28;20185;-88
2021/08/26 06:35:33;;;;;;;8.20;7.10;;;14.20;99.90;;;;;;5073251;28;20204;-88
2021/08/26 06:37:59;;;;;;;8.60;7.07;;;14.30;99.90;;;;;;5075049;28;20246;-88
2021/08/26 06:40:24;;;;;;;8.90;7.27;;;14.40;99.90;;;;;;5076976;28;20197;-88
2021/08/26 06:42:50;;;;;;;10.60;7.07;;;14.50;99.90;;;;;;5077285;28;20177;-88
2021/08/26 06:45:16;;;;;;;12.77;7.40;;;14.50;99.90;;;;;;5085041;28;20646;-88
2021/08/26 06:47:41;;;;;;;9.30;7.13;;;14.60;99.90;;;;;;5079980;28;20231;-88
2021/08/26 06:50:08;;;;;;;9.30;6.87;;;14.60;99.90;;;;;;5078474;28;20177;-88
2021/08/26 06:52:33;;;;;;;10.30;7.10;;;14.70;99.90;;;;;;5078030;28;20636;-88
2021/08/26 06:54:59;;;;;;;9.90;6.53;;;14.80;99.90;;;;;;5076952;28;20185;-88
2021/08/26 06:57:27;;;;;;;11.47;6.87;;;14.80;99.90;;;;;;5076747;28;20216;-88
2021/08/26 06:59:54;;;;;;;9.23;7.37;;;14.90;99.90;;;;;;5076731;28;20180;-88
2021/08/26 07:02:20;;;;;;;10.47;7.27;;;15.00;99.90;;;;;;5076594;28;20549;-87
2021/08/26 07:04:45;;;;;;;9.87;7.20;;;15.00;99.90;;;;;;5078485;28;20175;-87
2021/08/26 07:07:11;;;;;;;9.97;7.70;;;15.10;99.90;;;;;;5076872;28;20201;-87
2021/08/26 07:09:37;;;;;;;16.20;7.50;;;15.20;99.90;;;;;;5076866;28;20181;-87
2021/08/26 07:12:02;;;;;;;9.80;7.07;;;15.40;99.90;;;;;;5076735;28;20185;-87
2021/08/26 07:14:28;;;;;;;9.77;7.57;;;15.50;99.90;;;;;;5076401;28;20638;-87
2021/08/26 07:16:54;;;;;;;8.43;6.83;;;15.70;99.90;;;;;;5080530;28;20227;-86
2021/08/26 07:19:20;;;;;;;10.77;7.53;;;15.90;99.90;;;;;;5091492;28;20634;-88
2021/08/26 07:21:47;;;;;;;8.53;7.00;;;15.90;99.90;;;;;;5088904;28;20556;-87
2021/08/26 07:24:13;;;;;;;10.53;7.57;;;15.90;99.90;;;;;;5080673;28;20279;-87
2021/08/26 07:26:39;;;;;;;7.97;7.17;;;15.80;99.90;;;;;;5092204;28;20161;-87
2021/08/26 07:29:06;;;;;;;10.33;7.47;;;15.80;99.90;;;;;;5076996;28;20730;-87
2021/08/26 07:31:31;;;;;;;11.23;8.10;;;15.90;99.90;;;;;;5076340;28;20185;-87
2021/08/26 07:33:58;;;;;;;8.63;7.20;;;15.90;99.90;;;;;;5076216;28;20176;-88
2021/08/26 07:36:25;;;;;;;7.63;6.83;;;15.90;99.90;;;;;;5076428;28;20212;-87
2021/08/26 07:38:52;;;;;;;11.00;7.10;;;16.10;99.90;;;;;;5076212;28;20672;-87
2021/08/26 07:41:19;;;;;;;9.23;7.30;;;15.90;99.90;;;;;;5078345;28;20658;-87
2021/08/26 07:43:46;;;;;;;9.30;7.70;;;16.10;99.90;;;;;;5078373;28;20181;-88
2021/08/26 07:46:12;;;;;;;9.90;7.90;;;16.10;99.90;;;;;;5077981;28;20181;-85
2021/08/26 07:48:38;;;;;;;8.53;7.33;;;16.10;99.90;;;;;;5076587;28;20277;-86
2021/08/26 07:51:04;;;;;;;10.83;7.30;;;16.10;99.90;;;;;;5077199;28;20181;-87
2021/08/26 07:53:31;;;;;;;10.53;7.43;;;16.20;99.90;;;;;;5077006;28;20607;-87
2021/08/26 07:55:57;;;;;;;10.43;8.27;;;16.20;99.90;;;;;;5077780;28;20208;-86
2021/08/26 07:58:23;;;;;;;8.50;7.10;;;16.20;99.90;;;;;;5078803;28;20685;-87
2021/08/26 08:00:49;;;;;;;8.83;7.67;;;16.30;99.90;;;;;;5076598;28;20177;-88
2021/08/26 08:03:15;;;;;;;8.40;7.03;;;16.50;99.90;;;;;;5076495;28;20196;-87
2021/08/26 08:05:40;;;;;;;8.30;6.80;;;16.60;99.90;;;;;;5076151;28;20665;-87
2021/08/26 08:08:06;;;;;;;9.10;6.83;;;16.70;99.90;;;;;;5077222;28;20200;-86
2021/08/26 08:10:32;;;;;;;8.43;6.93;;;16.70;99.90;;;;;;5079171;28;20177;-85
2021/08/26 08:12:57;;;;;;;8.80;7.10;;;16.90;99.90;;;;;;5078651;28;20643;-86
2021/08/26 08:15:23;;;;;;;8.97;7.27;;;17.00;99.90;;;;;;5092904;28;20184;-86
2021/08/26 08:17:49;;;;;;;11.13;7.10;;;17.10;99.90;;;;;;5091667;28;20257;-87
2021/08/26 08:20:14;;;;;;;10.07;7.83;;;17.40;99.90;;;;;;5084843;28;20205;-87
2021/08/26 08:22:40;;;;;;;9.53;7.17;;;17.50;99.90;;;;;;5078777;28;20185;-87
2021/08/26 08:25:07;;;;;;;8.33;7.07;;;17.60;99.90;;;;;;5076847;28;20175;-88
2021/08/26 08:27:33;;;;;;;7.37;6.27;;;17.50;99.90;;;;;;5074942;28;20214;-87
2021/08/26 08:29:58;;;;;;;8.10;6.90;;;17.50;99.90;;;;;;5076843;28;20652;-89
2021/08/26 08:32:24;;;;;;;7.77;6.70;;;17.40;99.90;;;;;;5074965;28;20201;-87
2021/08/26 08:34:50;;;;;;;9.03;6.67;;;17.30;99.90;;;;;;5075005;28;20214;-88
2021/08/26 08:37:15;;;;;;;8.63;7.30;;;17.10;99.90;;;;;;5075950;28;20209;-88
2021/08/26 08:39:41;;;;;;;7.60;6.23;;;17.10;99.90;;;;;;5074747;28;20200;-88
2021/08/26 08:42:07;;;;;;;9.80;6.93;;;17.10;99.90;;;;;;5076709;28;20252;-86
2021/08/26 08:44:35;;;;;;;9.40;7.33;;;17.00;99.90;;;;;;5074712;28;20712;-89
2021/08/26 08:47:02;;;;;;;9.23;7.50;;;16.90;99.90;;;;;;5074923;28;20181;-88
2021/08/26 08:49:28;;;;;;;8.43;6.87;;;16.80;99.90;;;;;;5074648;28;20189;-87
2021/08/26 08:51:55;;;;;;;11.03;7.23;;;16.70;99.90;;;;;;5075944;28;20178;-88
2021/08/26 08:54:22;;;;;;;8.97;7.00;;;16.80;99.90;;;;;;5074626;28;20635;-88
2021/08/26 08:56:48;;;;;;;9.50;7.60;;;16.80;99.90;;;;;;5074575;28;20201;-88
2021/08/26 08:59:15;;;;;;;9.43;6.77;;;16.80;99.90;;;;;;5074320;28;20657;-88
2021/08/26 09:01:49;;;;;;;10.23;7.47;;;16.80;99.90;;;;;;5073924;28;20545;-87
2021/08/26 09:04:15;;;;;;;13.77;7.27;;;16.80;99.90;;;;;;5076014;28;20258;-88
2021/08/26 09:06:41;;;;;;;9.20;7.97;;;16.70;99.90;;;;;;5074981;28;20636;-88
2021/08/26 09:09:08;;;;;;;7.87;6.83;;;16.60;99.90;;;;;;5074876;28;20252;-88
2021/08/26 09:11:35;;;;;;;12.10;8.17;;;16.50;99.90;;;;;;5075937;28;20239;-89
2021/08/26 09:14:10;;;;;;;12.07;8.13;;;16.40;99.90;;;;;;5074216;28;20181;-87
2021/08/26 09:16:42;;;;;;;10.17;8.30;;;16.40;99.90;;;;;;5074311;28;20259;-87
2021/08/26 09:19:33;;;;;;;9.17;8.03;;;16.40;99.90;;;;;;5074376;28;20203;-88
2021/08/26 09:22:04;;;;;;;9.63;8.43;;;16.40;99.90;;;;;;5074446;28;20171;-88
2021/08/26 09:24:47;;;;;;;9.23;8.10;;;16.40;99.90;;;;;;5075459;28;20198;-88
2021/08/26 09:27:35;;;;;;;8.73;7.80;;;16.30;99.90;;;;;;5074507;28;20233;-88
2021/08/26 09:30:16;;;;;;;12.40;8.93;;;16.30;99.90;;;;;;5074125;28;20178;-88
2021/08/26 09:32:59;;;;;;;11.50;8.27;;;16.30;99.90;;;;;;5073972;28;20172;-88
2021/08/26 09:35:31;;;;;;;9.13;7.67;;;16.30;99.90;;;;;;5074144;28;20185;-88
2021/08/26 09:37:59;;;;;;;10.17;8.10;;;16.30;99.90;;;;;;5075567;28;20243;-88
2021/08/26 09:40:31;;;;;;;10.50;8.10;;;16.30;99.90;;;;;;5075263;28;20216;-88
2021/08/26 09:43:05;;;;;;;12.17;7.90;;;16.20;99.90;;;;;;5074061;28;20179;-88
2021/08/26 09:45:34;;;;;;;10.43;7.73;;;16.20;99.90;;;;;;5074301;28;20176;-88
2021/08/26 09:48:11;;;;;;;10.27;7.87;;;16.30;99.90;;;;;;5075838;28;20658;-88
2021/08/26 09:50:53;;;;;;;11.23;8.30;;;16.30;99.90;;;;;;5074018;28;20264;-88
2021/08/26 09:53:22;;;;;;;9.67;8.23;;;16.40;99.90;;;;;;5073735;28;20203;-88
2021/08/26 09:55:50;;;;;;;10.63;8.17;;;16.40;99.90;;;;;;5073628;28;20227;-88
2021/08/26 09:58:21;;;;;;;11.70;8.57;;;16.60;99.90;;;;;;5073894;28;20201;-88
2021/08/26 10:00:48;;;;;;;9.80;8.10;;;16.60;99.90;;;;;;5074028;28;20222;-88
2021/08/26 10:03:15;;;;;;;12.03;9.13;;;16.70;99.90;;;;;;5073810;28;20187;-87
2021/08/26 10:05:45;;;;;;;11.20;9.00;;;16.70;99.90;;;;;;5079053;28;20208;-87
2021/08/26 10:08:12;;;;;;;12.40;9.47;;;16.70;99.90;;;;;;5097007;28;20201;-87
2021/08/26 10:10:42;;;;;;;10.57;8.73;;;16.70;99.90;;;;;;5095847;28;20181;-88
2021/08/26 10:13:11;;;;;;;9.57;8.17;;;16.60;99.90;;;;;;5102450;28;20192;-89
2021/08/26 10:15:38;;;;;;;10.20;9.03;;;16.60;99.90;;;;;;5103388;28;20236;-87
2021/08/26 10:18:07;;;;;;;12.10;10.07;;;16.70;99.90;;;;;;5088490;28;20212;-89
2021/08/26 10:20:33;;;;;;;10.53;9.03;;;16.70;99.90;;;;;;5067187;28;20181;-86
2021/08/26 10:23:00;;;;;;;11.60;8.77;;;16.80;99.90;;;;;;5082777;28;20178;-87
2021/08/26 10:25:27;;;;;;;9.67;8.37;;;16.80;99.90;;;;;;5078704;28;20279;-87
2021/08/26 10:27:56;;;;;;;11.03;8.57;;;16.90;99.90;;;;;;5079455;28;20613;-87
2021/08/26 10:30:30;;;;;;;11.30;8.17;;;16.90;99.90;;;;;;5077663;28;20698;-87
2021/08/26 10:33:21;;;;;;;10.03;8.50;;;16.90;99.90;;;;;;5066737;28;20635;-87
2021/08/26 10:35:50;;;;;;;10.83;8.53;;;16.70;99.90;;;;;;5077376;28;20689;-87
2021/08/26 10:38:20;;;;;;;11.87;8.70;;;16.90;99.90;;;;;;5058260;28;20208;-87
2021/08/26 10:40:47;;;;;;;10.77;9.20;;;16.90;99.90;;;;;;5057357;28;20197;-87
2021/08/26 10:43:38;;;;;;;10.60;8.67;;;16.80;99.90;;;;;;5057035;28;20232;-88
2021/08/26 10:46:10;;;;;;;12.43;9.47;;;16.80;99.90;;;;;;5057524;28;20188;-87
2021/08/26 10:48:36;;;;;;;9.67;8.17;;;16.70;99.90;;;;;;5076181;28;20284;-86
2021/08/26 10:51:16;;;;;;;9.73;8.47;;;16.70;99.90;;;;;;5077933;28;20181;-86
2021/08/26 10:53:47;;;;;;;16.93;9.17;;;16.70;99.90;;;;;;5077003;28;20173;-87
2021/08/26 10:56:21;;;;;;;10.00;8.40;;;16.80;99.90;;;;;;5077223;28;20216;-86
2021/08/26 10:58:49;;;;;;;12.33;8.73;;;16.80;99.90;;;;;;5077315;28;20255;-87
2021/08/26 11:01:39;;;;;;;9.80;8.60;;;16.80;99.90;;;;;;5077270;28;20181;-87
2021/08/26 11:04:20;;;;;;;11.70;8.97;;;16.70;99.90;;;;;;5078522;28;20153;-86
2021/08/26 11:06:47;;;;;;;11.43;9.70;;;16.60;99.90;;;;;;5078256;28;20629;-87
2021/08/26 11:09:38;;;;;;;14.13;8.27;;;16.60;99.90;;;;;;5076951;28;20208;-86
2021/08/26 11:12:24;;;;;;;12.70;7.97;;;16.60;99.90;;;;;;5077013;28;20181;-87
2021/08/26 11:14:50;;;;;;;9.80;7.83;;;16.60;99.90;;;;;;5076759;28;20200;-87
2021/08/26 11:17:26;;;;;;;10.37;8.63;;;16.60;99.90;;;;;;5077493;28;20240;-87
2021/08/26 11:19:52;;;;;;;12.47;8.40;;;16.60;99.90;;;;;;5078881;28;20230;-88
2021/08/26 11:22:18;;;;;;;9.33;8.27;;;16.50;99.90;;;;;;5077600;28;20181;-87
2021/08/26 11:24:46;;;;;;;9.37;8.03;;;16.30;99.90;;;;;;5076447;28;20269;-87
2021/08/26 11:27:24;;;;;;;9.57;7.80;;;16.30;99.90;;;;;;5077549;28;20206;-87
2021/08/26 11:30:23;;;;;;;13.83;7.47;;;16.20;99.90;;;;;;5076873;28;20173;-87
2021/08/26 11:32:49;;;;;;;9.57;7.43;;;16.10;99.90;;;;;;5077154;28;20196;-87
2021/08/26 11:35:15;;;;;;;11.50;7.70;;;16.10;99.90;;;;;;5076618;28;20596;-87
2021/08/26 11:37:41;;;;;;;9.77;7.43;;;16.10;99.90;;;;;;5076576;28;20213;-87
2021/08/26 11:40:09;;;;;;;11.53;8.43;;;16.10;99.90;;;;;;5078301;28;20615;-86
2021/08/26 11:42:40;;;;;;;10.03;8.57;;;16.20;99.90;;;;;;5076169;28;20181;-86
2021/08/26 11:45:27;;;;;;;11.83;7.87;;;16.30;99.90;;;;;;5076463;28;20220;-86
2021/08/26 11:48:20;;;;;;;12.43;8.07;;;16.30;99.90;;;;;;5076617;28;20201;-88
2021/08/26 11:50:45;;;;;;;9.47;7.47;;;16.30;99.90;;;;;;5073849;28;20200;-87
2021/08/26 11:53:12;;;;;;;10.70;8.20;;;16.30;99.90;;;;;;5086702;28;20181;-87
2021/08/26 11:55:41;;;;;;;10.37;8.30;;;16.30;99.90;;;;;;5076932;28;20187;-88
2021/08/26 11:58:10;;;;;;;10.13;8.27;;;16.30;99.90;;;;;;5077820;28;20523;-88
2021/08/26 12:00:47;;;;;;;11.20;8.37;;;16.30;99.90;;;;;;5077971;28;20172;-87
2021/08/26 12:03:14;;;;;;;10.23;8.40;;;16.30;99.90;;;;;;5076975;28;20230;-88
2021/08/26 12:05:41;;;;;;;10.73;8.00;;;16.30;99.90;;;;;;5076817;28;20183;-87
2021/08/26 12:08:09;;;;;;;12.63;8.33;;;16.30;99.90;;;;;;5076770;28;20235;-89
2021/08/26 12:10:44;;;;;;;9.93;7.50;;;16.30;99.90;;;;;;5077290;28;20628;-88
2021/08/26 12:13:20;;;;;;;10.43;7.87;;;16.40;99.90;;;;;;5077107;28;20173;-89
2021/08/26 12:15:54;;;;;;;10.67;7.87;;;16.50;99.90;;;;;;5076686;28;20242;-89
2021/08/26 12:18:25;;;;;;;10.70;7.97;;;16.50;99.90;;;;;;5076953;28;20201;-86
2021/08/26 12:20:56;;;;;;;9.63;7.90;;;16.50;99.90;;;;;;5078736;28;20213;-89
2021/08/26 12:23:24;;;;;;;10.27;8.00;;;16.60;99.90;;;;;;5077869;28;20207;-87
2021/08/26 12:26:10;;;;;;;11.93;8.57;;;16.60;99.90;;;;;;5077991;28;20188;-89
2021/08/26 12:28:42;;;;;;;10.90;7.40;;;16.60;99.90;;;;;;5077523;28;20200;-89
2021/08/26 12:31:11;;;;;;;11.83;7.87;;;16.60;99.90;;;;;;5077796;28;20181;-88
2021/08/26 12:33:38;;;;;;;9.33;7.37;;;16.70;99.90;;;;;;5076308;28;20185;-88
2021/08/26 12:36:04;;;;;;;10.00;7.30;;;16.60;99.90;;;;;;5076059;28;20276;-88
2021/08/26 12:38:34;;;;;;;10.60;7.57;;;16.50;99.90;;;;;;5076807;28;20264;-88
2021/08/26 12:41:01;;;;;;;10.80;7.67;;;16.30;99.90;;;;;;5086477;28;20193;-88
2021/08/26 12:43:41;;;;;;;12.47;7.47;;;16.20;99.90;;;;;;5094983;28;20172;-88
2021/08/26 12:46:10;;;;;;;10.30;7.07;;;16.10;99.90;;;;;;5097813;28;20181;-88
2021/08/26 12:48:38;;;;;;;9.17;6.97;;;16.00;99.90;;;;;;5099189;28;20178;-87
2021/08/26 12:51:09;;;;;;;9.87;7.20;;;15.90;99.90;;;;;;5085076;28;20212;-87